Time;durP1;ratioP1;P1;durP2;ratioP2;P2;SDS_P1;SDS_P2;PMS_P1;PMS_P2;Temp;Humidity;BMP_temperature;BMP_pressure;BME280_temperature;BME280_humidity;BME280_pressure;Samples;Min_cycle;Max_cycle;Signal;HPM_P1;HPM_P2
2022/09/14 00:02:10;;;;;;;28.05;17.08;;;17.50;99.90;;;;;;5051455;28;20389;-75
2022/09/14 00:04:37;;;;;;;26.73;17.33;;;17.40;99.90;;;;;;5050683;28;20056;-75
2022/09/14 00:07:03;;;;;;;23.27;15.88;;;17.40;99.90;;;;;;5051490;28;20059;-75
2022/09/14 00:09:30;;;;;;;25.63;17.55;;;17.40;99.90;;;;;;5050005;28;20377;-76
2022/09/14 00:11:56;;;;;;;26.90;17.50;;;17.40;99.90;;;;;;5050628;28;20040;-77
2022/09/14 00:14:22;;;;;;;27.73;19.42;;;17.40;99.90;;;;;;5050601;28;20044;-76
2022/09/14 00:16:50;;;;;;;28.52;18.75;;;17.40;99.90;;;;;;5051426;28;20044;-75
2022/09/14 00:19:20;;;;;;;33.65;18.30;;;17.30;99.90;;;;;;5049844;28;20029;-75
2022/09/14 00:21:54;;;;;;;28.30;18.58;;;17.30;99.90;;;;;;5051713;28;20040;-75
2022/09/14 00:24:20;;;;;;;30.70;18.95;;;17.20;99.90;;;;;;5050980;28;20029;-76
2022/09/14 00:26:47;;;;;;;29.55;19.65;;;17.20;99.90;;;;;;5051367;28;20029;-75
2022/09/14 00:29:14;;;;;;;31.27;18.95;;;18.10;99.90;;;;;;5049500;28;20473;-74
2022/09/14 00:31:40;;;;;;;33.38;20.30;;;18.90;99.90;;;;;;5051418;28;20037;-73
2022/09/14 00:34:13;;;;;;;30.67;18.65;;;19.00;99.90;;;;;;5051380;28;20033;-74
2022/09/14 00:36:42;;;;;;;31.75;19.25;;;18.80;99.90;;;;;;5051210;28;20040;-74
2022/09/14 00:39:08;;;;;;;32.30;20.13;;;19.40;99.90;;;;;;5049904;28;20033;-75
2022/09/14 00:41:37;;;;;;;31.17;19.42;;;19.50;99.90;;;;;;5051435;28;20036;-74
2022/09/14 00:44:09;;;;;;;27.40;16.92;;;19.50;99.90;;;;;;5051360;28;20028;-73
2022/09/14 00:46:39;;;;;;;24.02;16.00;;;19.30;99.90;;;;;;5050801;28;20037;-73
2022/09/14 00:49:13;;;;;;;20.73;13.95;;;19.20;99.90;;;;;;5049906;28;20037;-74
2022/09/14 00:51:48;;;;;;;28.63;14.95;;;19.20;99.90;;;;;;5050929;28;20378;-73
2022/09/14 00:54:14;;;;;;;21.50;12.82;;;19.30;99.90;;;;;;5050663;28;20346;-73
2022/09/14 00:56:40;;;;;;;24.50;14.05;;;19.20;99.90;;;;;;5050988;28;20118;-73
2022/09/14 00:59:24;;;;;;;25.77;14.02;;;19.50;99.90;;;;;;5049771;28;20053;-73
2022/09/14 01:01:51;;;;;;;22.13;12.55;;;19.20;99.90;;;;;;5047124;28;20037;-73
2022/09/14 01:04:17;;;;;;;24.70;13.65;;;19.20;99.90;;;;;;5050042;28;20033;-74
2022/09/14 01:06:46;;;;;;;27.13;14.32;;;19.10;99.90;;;;;;5051368;28;20037;-73
2022/09/14 01:09:45;;;;;;;20.77;13.45;;;19.40;99.90;;;;;;5049716;28;20386;-73
2022/09/14 01:12:11;;;;;;;23.67;13.45;;;19.10;99.90;;;;;;5050665;28;20033;-73
2022/09/14 01:15:02;;;;;;;25.38;14.30;;;19.00;99.90;;;;;;5050261;28;20045;-73
2022/09/14 01:17:47;;;;;;;;;;;19.30;99.90;;;;;;5050726;28;20045;-74
2022/09/14 01:20:52;;;;;;;23.98;14.05;;;18.90;99.90;;;;;;5049019;28;19909;-74
2022/09/14 01:23:44;;;;;;;20.90;13.20;;;19.00;99.90;;;;;;4996120;28;20048;-74
2022/09/14 01:26:37;;;;;;;25.17;13.63;;;19.30;99.90;;;;;;5018403;28;20477;-76
2022/09/14 01:29:19;;;;;;;26.88;12.98;;;19.00;99.90;;;;;;5053206;28;20041;-74
2022/09/14 01:32:14;;;;;;;23.35;13.68;;;18.90;99.90;;;;;;5055019;28;20041;-73
2022/09/14 01:34:54;;;;;;;19.52;12.00;;;18.90;99.90;;;;;;5052453;28;20041;-73
2022/09/14 01:37:34;;;;;;;26.67;13.98;;;19.10;99.90;;;;;;5036038;28;20398;-73
2022/09/14 01:40:06;;;;;;;21.23;14.00;;;19.00;99.90;;;;;;5053308;28;20040;-73
2022/09/14 01:42:34;;;;;;;24.55;14.30;;;18.90;99.90;;;;;;5053805;28;20044;-73
2022/09/14 01:45:06;;;;;;;26.75;15.48;;;19.10;99.90;;;;;;5053694;28;20032;-73
2022/09/14 01:47:46;;;;;;;26.65;15.77;;;19.00;99.90;;;;;;5036294;28;20056;-73
2022/09/14 01:50:18;;;;;;;33.67;17.70;;;19.00;99.90;;;;;;5034946;28;20474;-77
2022/09/14 01:52:54;;;;;;;32.58;18.02;;;19.00;99.90;;;;;;5054253;28;20029;-73
2022/09/14 01:55:32;;;;;;;40.00;20.55;;;19.10;99.90;;;;;;5047275;28;20033;-75
2022/09/14 01:58:04;;;;;;;41.60;20.95;;;19.10;99.90;;;;;;5053900;28;20039;-74
2022/09/14 02:00:32;;;;;;;45.53;20.17;;;19.00;99.90;;;;;;5052220;28;20470;-74
2022/09/14 02:03:06;;;;;;;46.05;20.98;;;19.00;99.90;;;;;;5035564;28;20045;-74
2022/09/14 02:05:45;;;;;;;43.55;21.33;;;18.90;99.90;;;;;;5052727;28;20045;-74
2022/09/14 02:08:12;;;;;;;45.15;21.63;;;19.00;99.90;;;;;;5053230;28;20037;-78
2022/09/14 02:10:39;;;;;;;48.17;21.65;;;18.90;99.90;;;;;;5045867;28;20382;-74
2022/09/14 02:13:06;;;;;;;43.67;21.08;;;19.10;99.90;;;;;;5053857;28;20029;-74
2022/09/14 02:15:35;;;;;;;50.08;20.77;;;19.00;99.90;;;;;;5052431;28;20033;-74
2022/09/14 02:18:03;;;;;;;45.00;21.63;;;19.00;99.90;;;;;;5053456;28;20040;-74
2022/09/14 02:21:00;;;;;;;40.40;19.75;;;19.10;99.90;;;;;;5051831;28;20033;-74
2022/09/14 02:23:26;;;;;;;43.60;20.88;;;19.20;99.90;;;;;;5012421;28;20395;-74
2022/09/14 02:25:53;;;;;;;54.20;22.88;;;19.10;99.90;;;;;;5053078;28;20032;-75
2022/09/14 02:28:20;;;;;;;58.70;24.33;;;19.30;99.90;;;;;;5028358;28;20041;-76
2022/09/14 02:31:14;;;;;;;73.18;24.80;;;19.30;99.90;;;;;;5034777;28;20481;-75
2022/09/14 02:33:52;;;;;;;60.70;23.98;;;19.00;99.90;;;;;;5053386;28;20033;-75
2022/09/14 02:36:48;;;;;;;55.25;23.00;;;18.50;99.90;;;;;;5051357;28;20044;-75
2022/09/14 02:39:24;;;;;;;61.75;24.00;;;18.10;99.90;;;;;;5051479;28;20418;-75
2022/09/14 02:41:56;;;;;;;54.20;23.13;;;17.90;99.90;;;;;;5053120;28;20036;-75
2022/09/14 02:44:38;;;;;;;66.45;23.65;;;18.00;99.90;;;;;;5052383;28;20044;-75
2022/09/14 02:47:31;;;;;;;57.60;23.83;;;18.30;99.90;;;;;;5035357;28;20049;-75
2022/09/14 02:50:35;;;;;;;64.05;23.38;;;18.70;99.90;;;;;;5034042;28;20033;-75
2022/09/14 02:53:14;;;;;;;57.83;24.52;;;18.60;99.90;;;;;;5011195;28;20037;-75
2022/09/14 02:55:47;;;;;;;52.40;23.65;;;18.50;99.90;;;;;;5052992;28;20040;-75
2022/09/14 02:58:14;;;;;;;57.72;25.30;;;18.40;99.90;;;;;;5053208;28;20462;-76
2022/09/14 03:00:46;;;;;;;59.70;22.25;;;18.50;99.90;;;;;;5034905;28;20056;-77
2022/09/14 03:03:14;;;;;;;61.03;23.25;;;18.60;99.90;;;;;;5032967;28;20045;-77
2022/09/14 03:05:41;;;;;;;51.42;21.05;;;18.60;99.90;;;;;;5034252;28;20037;-77
2022/09/14 03:08:09;;;;;;;44.38;22.08;;;18.60;99.90;;;;;;5034261;28;20029;-77
2022/09/14 03:10:36;;;;;;;53.05;22.25;;;18.40;99.90;;;;;;5034886;28;20033;-76
2022/09/14 03:13:03;;;;;;;53.58;23.00;;;18.70;99.90;;;;;;5038774;28;20044;-76
2022/09/14 03:15:30;;;;;;;56.05;22.92;;;18.40;99.90;;;;;;5034708;28;20056;-75
2022/09/14 03:17:56;;;;;;;57.10;22.42;;;18.50;99.90;;;;;;5032788;28;20124;-77
2022/09/14 03:20:25;;;;;;;52.33;21.67;;;18.60;99.90;;;;;;5032204;28;20052;-75
2022/09/14 03:22:51;;;;;;;43.08;18.85;;;18.50;99.90;;;;;;5032788;28;20029;-76
2022/09/14 03:25:21;;;;;;;37.35;17.10;;;18.60;99.90;;;;;;5028943;28;20033;-74
2022/09/14 03:27:57;;;;;;;37.85;16.80;;;18.90;99.90;;;;;;5032516;28;20033;-75
2022/09/14 03:30:24;;;;;;;47.85;16.77;;;19.10;99.90;;;;;;5030411;28;20040;-75
2022/09/14 03:32:50;;;;;;;39.05;17.65;;;19.20;99.90;;;;;;5032246;28;20041;-75
2022/09/14 03:35:17;;;;;;;41.55;17.08;;;19.10;99.90;;;;;;5031762;28;20037;-75
2022/09/14 03:37:44;;;;;;;47.33;18.45;;;19.10;99.90;;;;;;5032147;28;20060;-75
2022/09/14 03:40:14;;;;;;;52.35;19.70;;;19.20;99.90;;;;;;5029989;28;20041;-74
2022/09/14 03:42:42;;;;;;;59.63;20.00;;;19.20;99.90;;;;;;5032519;28;20034;-74
2022/09/14 03:45:10;;;;;;;47.70;19.85;;;19.30;99.90;;;;;;5031816;28;20033;-76
2022/09/14 03:47:37;;;;;;;41.60;16.88;;;19.00;99.90;;;;;;5031848;28;20478;-73
2022/09/14 03:50:04;;;;;;;56.75;18.40;;;19.10;99.90;;;;;;5031035;28;20039;-74
2022/09/14 03:52:30;;;;;;;42.33;16.55;;;19.10;99.90;;;;;;5031184;28;20029;-75
2022/09/14 03:54:56;;;;;;;43.20;16.35;;;19.10;99.90;;;;;;5031583;28;20386;-74
2022/09/14 03:57:22;;;;;;;42.47;16.85;;;19.30;99.90;;;;;;5031414;28;20037;-75
2022/09/14 03:59:49;;;;;;;38.17;16.95;;;19.20;99.90;;;;;;5029575;28;20487;-75
2022/09/14 04:02:15;;;;;;;54.38;19.50;;;19.30;99.90;;;;;;5031646;28;20398;-78
2022/09/14 04:04:41;;;;;;;46.67;18.35;;;19.30;99.90;;;;;;5031428;28;20029;-74
2022/09/14 04:07:07;;;;;;;58.58;18.25;;;19.20;99.90;;;;;;5031882;28;20386;-74
2022/09/14 04:09:34;;;;;;;56.40;19.60;;;19.20;99.90;;;;;;5029689;28;20435;-74
2022/09/14 04:12:00;;;;;;;69.70;21.10;;;19.40;99.90;;;;;;5030878;28;20513;-74
2022/09/14 04:14:26;;;;;;;66.65;19.83;;;19.30;99.90;;;;;;5029649;28;20036;-74
2022/09/14 04:16:52;;;;;;;66.45;22.05;;;19.20;99.90;;;;;;5030510;28;20088;-75
2022/09/14 04:19:18;;;;;;;57.47;20.73;;;19.20;99.90;;;;;;5028177;28;20034;-75
2022/09/14 04:21:44;;;;;;;67.15;23.13;;;19.20;99.90;;;;;;5030756;28;20390;-74
2022/09/14 04:24:12;;;;;;;72.88;21.67;;;19.40;99.90;;;;;;5032676;28;20355;-74
2022/09/14 04:26:38;;;;;;;64.40;22.70;;;19.40;99.90;;;;;;5030024;28;20041;-74
2022/09/14 04:29:05;;;;;;;69.55;23.15;;;19.30;99.90;;;;;;5029929;28;20029;-74
2022/09/14 04:31:31;;;;;;;64.25;22.88;;;19.40;99.90;;;;;;5022967;28;20030;-77
2022/09/14 04:33:57;;;;;;;79.00;23.15;;;19.30;99.90;;;;;;5030896;28;20042;-77
2022/09/14 04:36:28;;;;;;;92.18;27.23;;;19.50;99.90;;;;;;5029718;28;20097;-77
2022/09/14 04:38:58;;;;;;;77.57;25.38;;;19.50;99.90;;;;;;5029444;28;20045;-77
2022/09/14 04:41:26;;;;;;;84.45;27.33;;;19.40;99.90;;;;;;5025296;28;20034;-77
2022/09/14 04:43:54;;;;;;;66.88;24.38;;;19.30;99.90;;;;;;5027056;28;20034;-77
2022/09/14 04:46:26;;;;;;;77.57;26.02;;;19.50;99.90;;;;;;5034211;28;20034;-78
2022/09/14 04:48:52;;;;;;;108.25;30.52;;;19.50;99.90;;;;;;5024643;28;20395;-77
2022/09/14 04:51:21;;;;;;;83.65;27.65;;;19.30;99.90;;;;;;5028475;28;20033;-77
2022/09/14 04:53:50;;;;;;;104.35;29.33;;;19.50;99.90;;;;;;5029614;28;20030;-77
2022/09/14 04:56:18;;;;;;;100.45;30.42;;;19.40;99.90;;;;;;5030153;28;20475;-78
2022/09/14 04:58:50;;;;;;;97.90;29.90;;;19.30;99.90;;;;;;5031951;28;20049;-77
2022/09/14 05:01:19;;;;;;;91.88;28.67;;;19.60;99.90;;;;;;5032504;28;20037;-78
2022/09/14 05:03:46;;;;;;;100.18;30.38;;;19.40;99.90;;;;;;5031048;28;20042;-77
2022/09/14 05:06:17;;;;;;;101.38;29.90;;;19.50;99.90;;;;;;5033013;28;20048;-77
2022/09/14 05:08:45;;;;;;;123.60;30.80;;;19.50;99.90;;;;;;5033135;28;20042;-77
2022/09/14 05:11:15;;;;;;;111.70;32.80;;;19.30;99.90;;;;;;5032780;28;20029;-77
2022/09/14 05:13:41;;;;;;;132.43;36.33;;;19.60;99.90;;;;;;5039834;28;20030;-76
2022/09/14 05:16:09;;;;;;;153.35;36.70;;;19.50;99.90;;;;;;5032777;28;20041;-76
2022/09/14 05:18:36;;;;;;;154.43;38.47;;;19.60;99.90;;;;;;5033065;28;20203;-76
2022/09/14 05:21:09;;;;;;;128.88;37.83;;;19.30;99.90;;;;;;5031932;28;20080;-77
2022/09/14 05:23:36;;;;;;;147.38;39.05;;;19.90;99.90;;;;;;5015531;28;20044;-78
2022/09/14 05:26:03;;;;;;;154.90;40.40;;;19.70;99.90;;;;;;5041889;28;20029;-74
2022/09/14 05:28:30;;;;;;;151.35;39.33;;;19.50;99.90;;;;;;5036519;28;20041;-76
2022/09/14 05:30:57;;;;;;;154.32;38.70;;;19.90;99.90;;;;;;5032350;28;20033;-76
2022/09/14 05:33:23;;;;;;;131.63;37.00;;;19.90;99.90;;;;;;5030943;28;20038;-77
2022/09/14 05:35:50;;;;;;;139.07;38.17;;;19.80;99.90;;;;;;5034841;28;20037;-77
2022/09/14 05:38:16;;;;;;;132.68;35.88;;;19.40;99.90;;;;;;5033737;28;20037;-76
2022/09/14 05:40:42;;;;;;;121.45;35.13;;;19.60;99.90;;;;;;5031217;28;20052;-75
2022/09/14 05:43:09;;;;;;;135.82;37.95;;;19.50;99.90;;;;;;5027283;28;20033;-76
2022/09/14 05:45:35;;;;;;;143.02;36.03;;;19.40;99.90;;;;;;5033256;28;20033;-77
2022/09/14 05:48:05;;;;;;;156.52;36.42;;;19.40;99.90;;;;;;5032572;28;20050;-77
2022/09/14 05:50:32;;;;;;;160.88;38.15;;;19.40;99.90;;;;;;5031994;28;20037;-77
2022/09/14 05:52:59;;;;;;;137.80;35.10;;;19.50;99.90;;;;;;5035074;28;20030;-76
2022/09/14 05:55:26;;;;;;;124.63;34.55;;;19.40;99.90;;;;;;5033672;28;20398;-76
2022/09/14 05:57:52;;;;;;;140.15;35.80;;;19.60;99.90;;;;;;5035110;28;20029;-74
2022/09/14 06:00:20;;;;;;;113.88;34.03;;;19.60;99.90;;;;;;5035853;28;20056;-76
2022/09/14 06:02:48;;;;;;;104.88;33.88;;;19.90;99.90;;;;;;5053691;28;20041;-76
2022/09/14 06:05:15;;;;;;;102.13;32.63;;;19.60;99.90;;;;;;5053801;28;20037;-75
2022/09/14 06:07:41;;;;;;;133.05;35.00;;;19.30;99.90;;;;;;5054364;28;20236;-75
2022/09/14 06:10:07;;;;;;;133.70;33.90;;;19.40;99.90;;;;;;5034777;28;20028;-75
2022/09/14 06:12:34;;;;;;;132.85;35.85;;;19.90;99.90;;;;;;5035022;28;20478;-75
2022/09/14 06:15:00;;;;;;;136.65;36.45;;;19.60;99.90;;;;;;5053888;28;20028;-75
2022/09/14 06:17:28;;;;;;;134.65;36.00;;;20.00;99.90;;;;;;5053453;28;20049;-75
2022/09/14 06:19:55;;;;;;;110.88;33.58;;;19.60;99.90;;;;;;5052698;28;20633;-75
2022/09/14 06:22:21;;;;;;;83.68;28.52;;;19.80;99.90;;;;;;5053214;28;20037;-75
2022/09/14 06:24:47;;;;;;;48.22;19.63;;;19.90;99.90;;;;;;5036502;28;20059;-76
2022/09/14 06:27:14;;;;;;;41.72;18.33;;;19.80;99.90;;;;;;5053931;28;20037;-75
2022/09/14 06:29:40;;;;;;;49.75;18.17;;;19.90;99.90;;;;;;5052140;28;20047;-75
2022/09/14 06:32:06;;;;;;;53.65;18.30;;;20.10;99.90;;;;;;5053620;28;20139;-76
2022/09/14 06:34:32;;;;;;;39.45;15.73;;;19.60;99.90;;;;;;5053366;28;20032;-76
2022/09/14 06:36:59;;;;;;;56.47;18.17;;;20.10;99.90;;;;;;5044047;28;20107;-76
2022/09/14 06:39:26;;;;;;;47.90;17.38;;;19.60;99.90;;;;;;5032072;28;20040;-76
2022/09/14 06:41:52;;;;;;;44.28;18.30;;;20.10;99.90;;;;;;5053352;28;20040;-76
2022/09/14 06:44:18;;;;;;;53.67;18.52;;;19.90;99.90;;;;;;5051840;28;20394;-77
2022/09/14 06:46:44;;;;;;;40.60;16.00;;;20.00;99.90;;;;;;5053596;28;20024;-76
2022/09/14 06:49:19;;;;;;;51.78;18.42;;;20.10;99.90;;;;;;5052674;28;20029;-75
2022/09/14 06:51:46;;;;;;;38.92;17.15;;;20.20;99.90;;;;;;5053023;28;20040;-75
2022/09/14 06:54:17;;;;;;;34.45;15.52;;;20.10;99.90;;;;;;5053430;28;20036;-77
2022/09/14 06:56:45;;;;;;;41.05;16.65;;;19.70;99.90;;;;;;5035376;28;20203;-77
2022/09/14 06:59:14;;;;;;;40.55;15.93;;;20.00;99.90;;;;;;5053213;28;20057;-76
2022/09/14 07:01:41;;;;;;;37.10;16.00;;;19.80;99.90;;;;;;5052239;28;20041;-76
2022/09/14 07:04:07;;;;;;;35.75;14.90;;;20.30;99.90;;;;;;5041126;28;20049;-76
2022/09/14 07:06:42;;;;;;;44.53;16.27;;;20.10;99.90;;;;;;5050541;28;20459;-76
2022/09/14 07:09:08;;;;;;;37.67;17.95;;;20.40;99.90;;;;;;5051559;28;20495;-77
2022/09/14 07:11:35;;;;;;;45.13;17.55;;;20.30;99.90;;;;;;5050252;28;20040;-77
2022/09/14 07:14:01;;;;;;;40.13;17.35;;;19.90;99.90;;;;;;5051356;28;20029;-77
2022/09/14 07:16:30;;;;;;;35.47;15.82;;;20.40;99.90;;;;;;5050416;28;20037;-77
2022/09/14 07:19:00;;;;;;;35.13;15.25;;;20.30;99.90;;;;;;5051492;28;20462;-77
2022/09/14 07:21:27;;;;;;;39.30;16.13;;;20.00;99.90;;;;;;5032095;28;20067;-77
2022/09/14 07:23:54;;;;;;;40.13;15.30;;;20.40;99.90;;;;;;5052376;28;20267;-76
2022/09/14 07:26:32;;;;;;;46.75;17.85;;;20.10;99.90;;;;;;5051912;28;20139;-77
2022/09/14 07:29:02;;;;;;;48.83;17.75;;;19.90;99.90;;;;;;5052039;28;20367;-77
2022/09/14 07:31:57;;;;;;;41.33;17.53;;;20.20;99.90;;;;;;5051343;28;20037;-77
2022/09/14 07:34:24;;;;;;;32.47;15.55;;;20.50;99.90;;;;;;5034124;28;20593;-77
2022/09/14 07:36:50;;;;;;;37.78;16.13;;;19.80;99.90;;;;;;5051064;28;20049;-77
2022/09/14 07:39:17;;;;;;;36.33;16.80;;;20.50;99.90;;;;;;5050070;28;20056;-78
2022/09/14 07:41:43;;;;;;;40.08;17.63;;;20.70;99.90;;;;;;5029113;28;20033;-77
2022/09/14 07:44:15;;;;;;;43.85;19.33;;;20.60;99.90;;;;;;5051403;28;20036;-77
2022/09/14 07:46:42;;;;;;;53.95;20.15;;;20.90;99.90;;;;;;5050246;28;20032;-77
2022/09/14 07:49:09;;;;;;;46.38;20.45;;;20.50;99.90;;;;;;5050471;28;20041;-77
2022/09/14 07:51:37;;;;;;;44.03;19.30;;;20.90;99.90;;;;;;5050019;28;20488;-77
2022/09/14 07:54:05;;;;;;;46.78;18.73;;;20.70;99.90;;;;;;5050215;28;20028;-77
2022/09/14 07:56:33;;;;;;;45.63;19.20;;;21.00;99.90;;;;;;5050105;28;20033;-76
2022/09/14 07:59:00;;;;;;;52.58;19.00;;;20.70;99.90;;;;;;5049605;28;20041;-77
2022/09/14 08:01:29;;;;;;;46.78;19.33;;;20.80;99.90;;;;;;5030836;28;20060;-77
2022/09/14 08:03:56;;;;;;;47.92;20.52;;;20.90;99.90;;;;;;5050915;28;20041;-77
2022/09/14 08:06:25;;;;;;;47.13;19.15;;;20.70;99.90;;;;;;5050361;28;20049;-77
2022/09/14 08:08:53;;;;;;;44.80;21.17;;;20.50;99.90;;;;;;5050872;28;20048;-77
2022/09/14 08:11:30;;;;;;;58.92;21.23;;;20.80;99.90;;;;;;5049314;28;20049;-77
2022/09/14 08:14:03;;;;;;;48.33;20.85;;;20.80;99.90;;;;;;5033236;28;20048;-78
2022/09/14 08:16:31;;;;;;;45.90;21.65;;;20.70;99.90;;;;;;5048317;28;20048;-78
2022/09/14 08:19:00;;;;;;;49.67;22.92;;;21.10;99.90;;;;;;5055602;28;20040;-78
2022/09/14 08:21:27;;;;;;;61.40;21.88;;;21.00;99.90;;;;;;5054651;28;20037;-78
2022/09/14 08:23:54;;;;;;;51.50;22.58;;;20.80;99.90;;;;;;5058967;28;20048;-78
2022/09/14 08:26:22;;;;;;;56.42;21.83;;;21.30;99.90;;;;;;5062643;28;20051;-78
2022/09/14 08:28:50;;;;;;;49.83;21.27;;;21.40;99.90;;;;;;5060000;28;20037;-78
2022/09/14 08:31:21;;;;;;;49.25;20.33;;;21.40;99.90;;;;;;5050462;28;20088;-78
2022/09/14 08:33:52;;;;;;;45.28;18.15;;;21.10;99.90;;;;;;5052301;28;20047;-78
2022/09/14 08:36:20;;;;;;;39.33;18.00;;;21.00;99.90;;;;;;5053101;28;20045;-79
2022/09/14 08:38:46;;;;;;;38.67;16.80;;;21.00;99.90;;;;;;5053668;28;20041;-79
2022/09/14 08:41:31;;;;;;;39.35;15.95;;;21.00;99.90;;;;;;5052837;28;20045;-79
2022/09/14 08:44:33;;;;;;;32.80;15.88;;;21.00;99.90;;;;;;5054036;28;20033;-79
2022/09/14 08:47:06;;;;;;;36.75;15.13;;;21.00;99.90;;;;;;5049382;28;20041;-79
2022/09/14 08:50:05;;;;;;;31.25;14.32;;;21.40;99.90;;;;;;5052053;28;20052;-79
2022/09/14 08:52:47;;;;;;;35.85;15.93;;;21.30;99.90;;;;;;4994362;28;20051;-78
2022/09/14 08:55:39;;;;;;;38.88;15.70;;;21.20;99.90;;;;;;5052897;28;20048;-78
2022/09/14 08:58:14;;;;;;;40.78;16.38;;;21.10;99.90;;;;;;5053101;28;20053;-78
2022/09/14 09:01:07;;;;;;;33.70;16.00;;;21.30;99.90;;;;;;4990947;28;1108067;-78
2022/09/14 09:03:42;;;;;;;35.95;16.13;;;21.80;99.90;;;;;;5037417;28;20049;-78
2022/09/14 09:06:17;;;;;;;27.48;15.13;;;21.40;99.90;;;;;;5052351;28;20044;-78
2022/09/14 09:08:59;;;;;;;24.92;13.23;;;21.20;99.90;;;;;;5055456;28;20045;-78
2022/09/14 09:11:35;;;;;;;28.02;14.02;;;21.50;99.90;;;;;;5053901;28;20419;-78
2022/09/14 09:14:22;;;;;;;21.25;11.30;;;21.60;99.90;;;;;;5054459;28;20048;-78
2022/09/14 09:17:03;;;;;;;16.48;11.00;;;22.00;99.90;;;;;;5052659;28;20045;-78
2022/09/14 09:19:40;;;;;;;23.33;11.05;;;21.90;99.90;;;;;;5051698;28;20044;-78
2022/09/14 09:22:13;;;;;;;17.90;10.18;;;21.50;99.90;;;;;;5053512;28;20048;-78
2022/09/14 09:24:44;;;;;;;15.75;10.07;;;21.80;99.90;;;;;;5053617;28;20037;-78
2022/09/14 09:27:14;;;;;;;23.23;10.27;;;21.10;99.90;;;;;;5054583;28;20041;-77
2022/09/14 09:29:41;;;;;;;23.65;11.27;;;21.40;99.90;;;;;;5050015;28;20044;-79
2022/09/14 09:32:18;;;;;;;17.80;11.33;;;21.00;99.90;;;;;;5052286;28;20036;-79
2022/09/14 09:35:05;;;;;;;22.17;11.90;;;21.50;99.90;;;;;;5054128;28;20275;-79
2022/09/14 09:37:54;;;;;;;26.63;12.80;;;21.10;99.90;;;;;;5054295;28;20057;-79
2022/09/14 09:40:32;;;;;;;16.42;11.07;;;21.50;99.90;;;;;;5052396;28;20045;-79
2022/09/14 09:43:10;;;;;;;17.40;10.77;;;21.50;99.90;;;;;;5036862;28;20056;-80
2022/09/14 09:45:52;;;;;;;18.52;11.15;;;21.20;99.90;;;;;;5053590;28;20036;-79
2022/09/14 09:48:22;;;;;;;19.95;13.20;;;22.10;99.90;;;;;;5019071;28;20044;-81
2022/09/14 09:50:52;;;;;;;17.35;11.45;;;22.60;99.90;;;;;;5034531;28;20056;-82
2022/09/14 09:53:21;;;;;;;11.93;8.05;;;22.60;99.90;;;;;;5054461;28;20493;-84
2022/09/14 09:55:48;;;;;;;9.80;7.20;;;22.50;99.90;;;;;;5053879;28;20029;-82
2022/09/14 09:58:27;;;;;;;9.80;7.25;;;22.50;99.90;;;;;;5036132;28;20036;-80
2022/09/14 10:01:30;;;;;;;13.63;9.52;;;22.50;99.90;;;;;;5037255;28;20037;-80
2022/09/14 10:04:20;;;;;;;11.85;7.03;;;23.00;99.90;;;;;;5001363;28;20041;-80
2022/09/14 10:06:48;;;;;;;12.15;8.50;;;23.10;99.90;;;;;;5052551;28;20036;-78
2022/09/14 10:09:19;;;;;;;12.48;7.88;;;22.70;99.90;;;;;;5031593;28;20044;-78
2022/09/14 10:11:47;;;;;;;11.40;7.82;;;22.70;99.90;;;;;;5048045;28;20032;-79
2022/09/14 10:14:32;;;;;;;9.85;7.40;;;22.90;99.90;;;;;;5048666;28;20037;-79
2022/09/14 10:17:32;;;;;;;9.25;6.25;;;22.80;99.90;;;;;;5051131;28;20029;-79
2022/09/14 10:19:58;;;;;;;11.93;6.78;;;22.90;99.90;;;;;;5030654;28;20072;-78
2022/09/14 10:22:30;;;;;;;10.93;7.78;;;23.20;99.90;;;;;;5052975;28;20037;-75
2022/09/14 10:25:19;;;;;;;8.20;6.60;;;23.10;99.90;;;;;;5051420;28;20025;-78
2022/09/14 10:27:55;;;;;;;11.40;7.90;;;23.20;99.90;;;;;;5051275;28;20040;-86
2022/09/14 10:30:25;;;;;;;8.98;6.63;;;23.40;99.90;;;;;;5048671;28;20371;-80
2022/09/14 10:33:04;;;;;;;10.27;7.93;;;23.20;99.90;;;;;;5052607;28;20029;-82
2022/09/14 10:35:45;;;;;;;10.95;7.22;;;23.20;99.90;;;;;;5050686;28;20033;-79
2022/09/14 10:38:34;;;;;;;12.65;8.65;;;23.00;99.90;;;;;;5052947;28;20033;-80
2022/09/14 10:41:14;;;;;;;14.27;8.00;;;22.90;99.90;;;;;;5053359;28;20037;-79
2022/09/14 10:44:20;;;;;;;12.52;8.05;;;23.20;99.90;;;;;;5035429;28;20041;-81
2022/09/14 10:46:58;;;;;;;9.40;6.90;;;23.50;99.90;;;;;;5051399;28;20060;-79
2022/09/14 10:49:46;;;;;;;9.90;7.45;;;23.40;99.90;;;;;;5035305;28;20041;-79
2022/09/14 10:52:40;;;;;;;9.35;6.57;;;23.60;99.90;;;;;;5053588;28;20029;-80
2022/09/14 10:55:50;;;;;;;10.23;7.13;;;23.70;99.90;;;;;;5051745;28;20035;-81
2022/09/14 10:58:38;;;;;;;8.52;6.25;;;24.00;99.90;;;;;;4956045;28;20047;-81
2022/09/14 11:01:10;;;;;;;9.75;7.15;;;23.90;99.90;;;;;;5052826;28;20402;-82
2022/09/14 11:04:11;;;;;;;7.60;6.07;;;23.40;99.90;;;;;;5052839;28;20044;-80
2022/09/14 11:06:44;;;;;;;8.77;7.13;;;23.70;99.90;;;;;;5050587;28;20143;-82
2022/09/14 11:09:32;;;;;;;8.13;6.90;;;23.60;99.90;;;;;;5058088;28;20037;-81
2022/09/14 11:12:34;;;;;;;10.05;7.15;;;23.50;99.90;;;;;;5055628;28;20040;-82
2022/09/14 11:15:07;;;;;;;8.02;7.22;;;23.70;99.90;;;;;;5051658;28;20037;-82
2022/09/14 11:17:51;;;;;;;10.38;7.05;;;23.30;99.90;;;;;;5052305;28;20029;-81
2022/09/14 11:20:27;;;;;;;8.82;6.57;;;23.50;99.90;;;;;;5053023;28;20048;-82
2022/09/14 11:23:09;;;;;;;8.77;5.80;;;23.80;99.90;;;;;;5034789;28;20051;-81
2022/09/14 11:25:47;;;;;;;8.57;7.50;;;23.70;99.90;;;;;;5050801;28;20032;-82
2022/09/14 11:28:22;;;;;;;7.40;5.80;;;23.60;99.90;;;;;;5053247;28;20033;-81
2022/09/14 11:31:19;;;;;;;8.55;5.88;;;23.60;99.90;;;;;;5052327;28;20029;-81
2022/09/14 11:34:08;;;;;;;8.20;6.40;;;23.50;99.90;;;;;;5010456;28;20393;-80
2022/09/14 11:36:46;;;;;;;7.95;5.63;;;23.90;99.90;;;;;;5036432;28;20048;-80
2022/09/14 11:39:25;;;;;;;7.45;5.85;;;24.10;99.90;;;;;;5045552;28;20041;-80
2022/09/14 11:42:02;;;;;;;7.10;6.38;;;24.00;99.90;;;;;;5053039;28;20039;-81
2022/09/14 11:44:35;;;;;;;6.57;5.57;;;23.90;99.90;;;;;;5051286;28;20033;-81
2022/09/14 11:47:04;;;;;;;8.55;5.50;;;24.10;99.90;;;;;;5046512;28;20024;-81
2022/09/14 11:49:45;;;;;;;8.83;5.30;;;24.60;99.90;;;;;;5046032;28;20338;-81
2022/09/14 11:52:29;;;;;;;5.90;4.72;;;24.00;99.90;;;;;;5052788;28;20386;-81
2022/09/14 11:54:57;;;;;;;6.57;4.95;;;24.20;99.90;;;;;;5051190;28;20056;-82
2022/09/14 11:57:27;;;;;;;7.45;5.43;;;24.20;99.90;;;;;;5052185;28;20048;-81
2022/09/14 11:59:57;;;;;;;8.45;4.60;;;24.60;99.90;;;;;;5053719;28;20501;-81
2022/09/14 12:02:26;;;;;;;7.00;4.40;;;24.10;99.90;;;;;;5053085;28;20374;-80
2022/09/14 12:05:05;;;;;;;6.25;4.57;;;24.30;99.90;;;;;;5052907;28;20033;-81
2022/09/14 12:07:46;;;;;;;8.38;4.82;;;24.10;99.90;;;;;;5052036;28;20466;-79
2022/09/14 12:10:17;;;;;;;11.52;5.22;;;23.90;99.90;;;;;;5056231;28;20391;-81
2022/09/14 12:12:43;;;;;;;6.60;4.32;;;23.70;99.90;;;;;;5052164;28;20036;-79
2022/09/14 12:15:27;;;;;;;10.10;5.55;;;23.90;99.90;;;;;;5050659;28;20040;-81
2022/09/14 12:18:21;;;;;;;11.32;5.10;;;23.70;99.90;;;;;;5049359;28;20041;-80
2022/09/14 12:20:58;;;;;;;7.18;5.18;;;23.80;99.90;;;;;;5050202;28;20037;-82
2022/09/14 12:23:26;;;;;;;7.65;4.50;;;23.50;99.90;;;;;;5051945;28;20136;-81
2022/09/14 12:26:04;;;;;;;8.52;5.30;;;23.40;99.90;;;;;;5017645;28;20037;-81
2022/09/14 12:28:36;;;;;;;6.78;5.22;;;23.40;99.90;;;;;;5050223;28;20398;-80
2022/09/14 12:31:02;;;;;;;13.70;5.97;;;23.40;99.90;;;;;;5051835;28;20037;-79
2022/09/14 12:33:32;;;;;;;8.25;6.28;;;23.30;99.90;;;;;;5034051;28;20040;-79
2022/09/14 12:36:04;;;;;;;9.98;6.32;;;23.10;99.90;;;;;;5034315;28;20045;-80
2022/09/14 12:38:30;;;;;;;8.07;5.85;;;23.00;99.90;;;;;;5050536;28;20040;-79
2022/09/14 12:41:01;;;;;;;12.05;6.00;;;23.10;99.90;;;;;;5052064;28;20037;-79
2022/09/14 12:43:33;;;;;;;9.70;6.78;;;23.20;99.90;;;;;;5051652;28;20033;-79
2022/09/14 12:46:01;;;;;;;9.65;6.78;;;23.00;99.90;;;;;;5052177;28;20037;-79
2022/09/14 12:48:48;;;;;;;7.55;6.68;;;22.90;99.90;;;;;;5050463;28;20037;-81
2022/09/14 12:51:20;;;;;;;9.10;6.43;;;22.80;99.90;;;;;;5055004;28;20055;-82
2022/09/14 12:53:56;;;;;;;9.82;6.72;;;22.70;99.90;;;;;;5049340;28;20381;-81
2022/09/14 12:56:30;;;;;;;12.15;6.93;;;22.70;99.90;;;;;;5050183;28;20029;-81
2022/09/14 12:59:08;;;;;;;9.40;7.28;;;22.60;99.90;;;;;;5061076;28;21224;-81
2022/09/14 13:01:48;;;;;;;8.75;6.40;;;22.50;99.90;;;;;;5046651;28;20041;-79